Inicio METAR Ruta Wind Satelite

Informe Meteorológico

Fecha: 2020/07/02 01:58:41 Local
2020.07.02 06:58 UTC


Estado: VIGENTE
Operación:VFR
Barranquilla / Ernestocortissoz, Colombia (SKBQ) 10-53N 074-47W 30M
2020.07.02 0600 UTC
Wind: from the N (360 degrees) at 5 MPH (4 KT):0
Visibility: greater than 7 mile(s):0
Sky conditions: partly cloudy
Temperature: 78 F (26 C)
Dew Point: 77 F (25 C)
Relative Humidity: 94%
Pressure (altimeter): 29.8 in. Hg (1009 hPa)
ob: SKBQ 020600Z 36004KT 9999 SCT015 26/25 A2980 NOSIG
cycle: 6

SKBQ 020500Z 02006KT 9999 SCT015 27/25 A2982 NOSIG
SKBQ 020400Z 03010KT 9999 SCT015 27/25 A2980 NOSIG
SKBQ 020300Z 31004KT 9999 SCT015 27/24 A2981 NOSIG
SKBQ 020200Z 32005KT 9999 SCT015 27/24 A2982 NOSIG
SKBQ 020100Z 35005KT 9999 SCT015 27/24 A2983 NOSIG

2020/07/02 06:58
TAF SKBQ 020430Z 0206/0306 09004KT 9999 SCT015
TEMPO 0210/0112 4000 BR SCT010
TEMPO 0217/0221 2000 TSRA BKN010CB TX32/0218Z TN25/0209Z